createdAt,value
2023-04-13T00:00:46.742Z,75.12
2023-04-13T00:05:40.342Z,75.58
2023-04-13T00:10:36.347Z,75.63
2023-04-13T00:15:29.732Z,77.37
2023-04-13T00:20:24.415Z,77.60
2023-04-13T00:25:18.103Z,77.77
2023-04-13T00:30:13.119Z,77.90
2023-04-13T00:35:09.617Z,77.64
2023-04-13T00:40:05.909Z,77.56
2023-04-13T00:44:59.059Z,78.32
2023-04-13T00:49:53.151Z,77.13
2023-04-13T00:54:46.461Z,76.17
2023-04-13T00:59:41.072Z,76.78
2023-04-13T01:04:38.110Z,76.88
2023-04-13T01:09:36.307Z,76.71
2023-04-13T01:14:37.529Z,76.21
2023-04-13T01:19:51.654Z,75.66
2023-04-13T01:24:53.708Z,74.94
2023-04-13T01:29:49.006Z,74.87
2023-04-13T01:34:42.164Z,75.12
2023-04-13T01:39:35.657Z,74.67
2023-04-13T01:44:38.248Z,74.64
2023-04-13T01:49:33.964Z,74.50
2023-04-13T01:54:43.756Z,74.41
2023-04-13T01:59:37.799Z,75.08
2023-04-13T02:04:32.440Z,75.01
2023-04-13T02:09:28.315Z,74.69
2023-04-13T02:14:21.763Z,74.12
2023-04-13T02:19:16.275Z,74.24
2023-04-13T02:24:10.985Z,74.02
2023-04-13T02:29:05.761Z,74.13
2023-04-13T02:33:59.382Z,75.00
2023-04-13T02:38:53.211Z,75.25
2023-04-13T02:43:56.021Z,74.77
2023-04-13T02:48:51.919Z,74.58
2023-04-13T02:53:45.777Z,74.70
2023-04-13T02:58:39.367Z,74.99
2023-04-13T03:03:41.452Z,74.64
2023-04-13T03:08:35.842Z,74.46
2023-04-13T03:13:33.818Z,73.65
2023-04-13T03:18:27.681Z,74.11
2023-04-13T03:23:22.810Z,73.98
2023-04-13T03:28:16.103Z,73.55
2023-04-13T03:33:11.774Z,73.93
2023-04-13T03:38:05.946Z,74.62
2023-04-13T03:43:04.795Z,75.72
2023-04-13T03:48:01.960Z,74.97
2023-04-13T03:52:55.364Z,74.29
2023-04-13T03:57:49.858Z,73.89
2023-04-13T04:02:49.494Z,74.56
2023-04-13T04:07:51.678Z,75.12
2023-04-13T04:12:44.980Z,74.60
2023-04-13T04:17:40.080Z,74.81
2023-04-13T04:22:36.726Z,74.57
2023-04-13T04:27:37.937Z,73.50
2023-04-13T04:32:34.589Z,73.77
2023-04-13T04:37:30.003Z,74.17
2023-04-13T04:42:30.165Z,73.31
2023-04-13T04:47:30.210Z,72.79
2023-04-13T04:52:34.344Z,72.89
2023-04-13T04:57:31.560Z,72.86
2023-04-13T05:02:24.891Z,72.83
2023-04-13T05:07:19.107Z,72.35
2023-04-13T05:12:12.591Z,72.12
2023-04-13T05:17:10.351Z,72.36
2023-04-13T05:22:06.500Z,71.85
2023-04-13T05:27:08.484Z,71.07
2023-04-13T05:32:03.199Z,71.47
2023-04-13T05:36:58.310Z,71.46
2023-04-13T05:41:51.791Z,72.87
2023-04-13T05:46:45.927Z,71.86
2023-04-13T05:51:40.110Z,70.64
2023-04-13T05:56:35.529Z,68.11
2023-04-13T06:01:29.727Z,67.63
2023-04-13T06:06:23.340Z,62.62
2023-04-13T06:11:17.046Z,59.99
2023-04-13T06:16:12.003Z,59.88
2023-04-13T06:21:05.623Z,58.42
2023-04-13T06:25:59.391Z,58.43
2023-04-13T06:31:13.757Z,58.86
2023-04-13T06:36:12.017Z,60.32
2023-04-13T06:41:06.963Z,61.44
2023-04-13T06:46:05.386Z,62.65
2023-04-13T06:51:03.676Z,60.98
2023-04-13T06:56:01.787Z,61.24
2023-04-13T07:00:56.623Z,61.00
2023-04-13T07:05:51.213Z,60.17
2023-04-13T07:10:54.260Z,62.53
2023-04-13T07:16:05.146Z,59.76
2023-04-13T07:21:03.924Z,59.42
2023-04-13T07:26:07.418Z,59.15
2023-04-13T07:31:06.649Z,60.10
2023-04-13T07:36:00.436Z,59.52
2023-04-13T07:40:59.354Z,57.02
2023-04-13T07:45:56.554Z,57.50
2023-04-13T07:50:53.588Z,60.44
2023-04-13T07:55:50.016Z,58.16
2023-04-13T08:00:43.403Z,58.43
2023-04-13T08:05:37.570Z,57.54
2023-04-13T08:10:47.581Z,58.70
2023-04-13T08:16:02.829Z,58.67
2023-04-13T08:21:03.876Z,56.62
2023-04-13T08:26:20.910Z,55.61
2023-04-13T08:31:52.116Z,52.50
2023-04-13T08:36:52.772Z,50.19
2023-04-13T08:41:48.866Z,49.35
2023-04-13T08:46:46.817Z,47.25
2023-04-13T08:51:54.761Z,43.60
2023-04-13T08:56:50.359Z,40.59
2023-04-13T09:01:50.552Z,41.82
2023-04-13T09:06:51.455Z,39.53
2023-04-13T09:11:49.159Z,39.54
2023-04-13T09:16:49.963Z,40.10
2023-04-13T09:22:27.164Z,40.06
2023-04-13T09:27:36.251Z,39.80
2023-04-13T09:33:05.708Z,37.78
2023-04-13T09:44:27.395Z,39.93
2023-04-13T09:49:22.747Z,40.24
2023-04-13T09:54:22.181Z,42.00
2023-04-13T09:59:16.026Z,43.02
2023-04-13T10:04:10.675Z,43.16
2023-04-13T10:09:06.141Z,41.81
2023-04-13T10:14:02.890Z,41.43
2023-04-13T10:19:02.019Z,41.32
2023-04-13T10:23:57.069Z,42.18
2023-04-13T10:28:51.947Z,40.78
2023-04-13T10:33:49.594Z,40.58
2023-04-13T10:38:49.256Z,37.80
2023-04-13T10:43:45.006Z,35.63
2023-04-13T10:48:44.221Z,35.26
2023-04-13T10:53:37.928Z,34.92
2023-04-13T10:58:34.672Z,36.29
2023-04-13T11:03:29.279Z,34.44
2023-04-13T11:08:28.204Z,37.70
2023-04-13T11:13:32.300Z,33.30
2023-04-13T11:18:29.172Z,29.70
2023-04-13T11:23:24.461Z,27.64
2023-04-13T11:28:19.606Z,27.60
2023-04-13T11:33:13.114Z,28.17
2023-04-13T11:38:06.871Z,29.59
2023-04-13T11:43:03.537Z,27.46
2023-04-13T11:48:00.750Z,26.86
2023-04-13T11:52:57.024Z,27.02
2023-04-13T11:57:50.884Z,26.59
2023-04-13T12:02:59.968Z,25.72
2023-04-13T12:07:58.660Z,26.02
2023-04-13T12:13:16.958Z,24.28
2023-04-13T12:18:15.974Z,24.73
2023-04-13T12:23:23.413Z,25.66
2023-04-13T12:28:19.710Z,26.59
2023-04-13T12:33:13.637Z,26.62
2023-04-13T12:38:09.958Z,22.88
2023-04-13T12:43:05.283Z,26.73
2023-04-13T12:47:58.853Z,23.40
2023-04-13T12:52:53.778Z,22.42
2023-04-13T12:57:47.305Z,22.31
2023-04-13T13:02:42.399Z,22.85
2023-04-13T13:07:36.893Z,21.49
2023-04-13T13:12:32.269Z,21.92
2023-04-13T13:17:25.821Z,21.47
2023-04-13T13:22:20.655Z,21.45
2023-04-13T13:27:50.653Z,22.33
2023-04-13T13:32:34.305Z,21.08
2023-04-13T13:37:29.075Z,19.88
2023-04-13T13:42:22.386Z,19.28
2023-04-13T13:47:16.166Z,19.89
2023-04-13T13:52:15.945Z,19.55
2023-04-13T13:57:17.512Z,20.54
2023-04-13T14:02:11.097Z,19.18
2023-04-13T14:07:06.668Z,19.88
2023-04-13T14:12:02.097Z,18.70
2023-04-13T14:16:56.840Z,18.57
2023-04-13T14:21:50.532Z,20.39
2023-04-13T14:26:43.720Z,18.28
2023-04-13T14:31:39.597Z,19.12
2023-04-13T14:36:34.501Z,18.92
2023-04-13T14:41:31.065Z,18.64
2023-04-13T14:46:24.369Z,17.57
2023-04-13T14:51:18.558Z,19.68
2023-04-13T14:56:13.058Z,18.37
2023-04-13T15:01:19.923Z,18.09
2023-04-13T15:06:14.181Z,20.21
2023-04-13T15:11:07.832Z,20.98
2023-04-13T15:16:02.714Z,22.28
2023-04-13T15:20:55.960Z,23.95
2023-04-13T15:25:49.375Z,24.59
2023-04-13T15:30:43.335Z,26.70
2023-04-13T15:35:37.910Z,26.46
2023-04-13T15:40:33.985Z,27.86
2023-04-13T15:45:27.208Z,28.14
2023-04-13T15:50:20.531Z,29.55
2023-04-13T15:55:15.499Z,30.41
2023-04-13T16:00:09.773Z,32.13
2023-04-13T16:05:03.208Z,31.97
2023-04-13T16:09:58.354Z,32.75
2023-04-13T16:14:56.000Z,32.75
2023-04-13T16:19:51.839Z,33.72
2023-04-13T16:24:45.094Z,33.79
2023-04-13T16:29:41.508Z,34.47
2023-04-13T16:34:41.253Z,34.47
2023-04-13T16:39:34.428Z,34.92
2023-04-13T16:44:27.660Z,35.00
2023-04-13T16:49:20.825Z,37.37
2023-04-13T16:54:17.933Z,37.22
2023-04-13T16:59:11.105Z,37.16
2023-04-13T17:04:04.355Z,37.71
2023-04-13T17:09:00.434Z,38.16
2023-04-13T17:13:55.511Z,39.58
2023-04-13T17:18:48.856Z,39.10
2023-04-13T17:23:43.589Z,40.85
2023-04-13T17:28:39.727Z,40.67
2023-04-13T17:33:34.885Z,41.25
2023-04-13T17:38:31.027Z,42.03
2023-04-13T17:43:24.263Z,42.61
2023-04-13T17:48:21.098Z,43.63
2023-04-13T17:53:15.823Z,44.17
2023-04-13T17:58:10.842Z,45.91
2023-04-13T18:03:05.664Z,45.53
2023-04-13T18:08:01.456Z,44.55
2023-04-13T18:13:00.526Z,47.41
2023-04-13T18:17:56.908Z,45.46
2023-04-13T18:22:50.271Z,44.91
2023-04-13T18:27:44.146Z,45.13
2023-04-13T18:32:38.751Z,45.20
2023-04-13T18:37:37.704Z,45.08
2023-04-13T18:42:32.631Z,44.63
2023-04-13T18:47:27.133Z,44.63
2023-04-13T18:52:23.896Z,45.27
2023-04-13T18:57:17.184Z,44.62
2023-04-13T19:02:10.711Z,45.25
2023-04-13T19:07:08.933Z,44.68
2023-04-13T19:12:03.941Z,44.50
2023-04-13T19:16:59.988Z,44.54
2023-04-13T19:21:57.019Z,44.08
2023-04-13T19:26:53.020Z,44.03
2023-04-13T19:31:48.487Z,43.98
2023-04-13T19:36:42.816Z,44.14
2023-04-13T19:41:38.624Z,43.77
2023-04-13T19:46:32.876Z,43.54
2023-04-13T19:51:28.000Z,43.20
2023-04-13T19:56:35.181Z,43.33
2023-04-13T20:01:33.793Z,42.80
2023-04-13T20:06:28.628Z,42.49
2023-04-13T20:11:22.021Z,42.17
2023-04-13T20:16:18.725Z,42.02
2023-04-13T20:21:21.386Z,42.42
2023-04-13T20:26:16.154Z,42.88
2023-04-13T20:31:09.536Z,42.90
2023-04-13T20:36:03.495Z,43.63
2023-04-13T20:40:57.627Z,43.80
2023-04-13T20:45:53.192Z,44.51
2023-04-13T20:50:48.205Z,45.05
2023-04-13T20:55:42.267Z,45.45
2023-04-13T21:00:35.801Z,46.04
2023-04-13T21:05:33.007Z,46.53
2023-04-13T21:10:26.422Z,46.81
2023-04-13T21:15:25.244Z,46.97
2023-04-13T21:20:18.530Z,47.47
2023-04-13T21:25:13.344Z,47.43
2023-04-13T21:30:07.881Z,47.90
2023-04-13T21:35:01.262Z,48.70
2023-04-13T21:39:54.940Z,49.47
2023-04-13T21:44:52.717Z,49.73
2023-04-13T21:49:45.991Z,49.94
2023-04-13T21:54:39.178Z,50.21
2023-04-13T21:59:32.492Z,50.43
2023-04-13T22:04:27.384Z,51.09
2023-04-13T22:09:20.966Z,51.54
2023-04-13T22:14:14.229Z,52.08
2023-04-13T22:19:07.482Z,51.70
2023-04-13T22:24:02.143Z,51.33
2023-04-13T22:28:55.793Z,53.19
2023-04-13T22:33:49.083Z,55.16
2023-04-13T22:38:42.286Z,57.48
2023-04-13T22:43:37.049Z,59.49
2023-04-13T22:48:30.998Z,61.11
2023-04-13T22:53:24.235Z,62.97
2023-04-13T22:58:17.633Z,61.64
2023-04-13T23:03:13.252Z,63.46
2023-04-13T23:08:06.649Z,63.77
2023-04-13T23:13:00.461Z,64.53
2023-04-13T23:17:55.804Z,66.33
2023-04-13T23:22:50.829Z,66.21
2023-04-13T23:27:44.050Z,66.99
2023-04-13T23:32:37.540Z,68.65
2023-04-13T23:37:30.883Z,69.57
2023-04-13T23:42:25.820Z,70.08
2023-04-13T23:47:19.022Z,71.20
2023-04-13T23:52:12.236Z,72.91
2023-04-13T23:57:05.599Z,73.06
